sensor_id;sensor_type;location;lat;lon;timestamp;temperature;humidity
23083;DHT22;11709;52.420;10.538;2022-10-16T00:00:19;15.40;99.90
23083;DHT22;11709;52.420;10.538;2022-10-16T00:04:21;15.40;99.90
23083;DHT22;11709;52.420;10.538;2022-10-16T00:08:24;15.30;99.90
23083;DHT22;11709;52.420;10.538;2022-10-16T00:12:26;15.20;99.90
23083;DHT22;11709;52.420;10.538;2022-10-16T00:16:29;15.20;99.90
23083;DHT22;11709;52.420;10.538;2022-10-16T00:20:34;15.10;99.90
23083;DHT22;11709;52.420;10.538;2022-10-16T00:24:38;15.10;99.90
23083;DHT22;11709;52.420;10.538;2022-10-16T00:28:40;15.00;99.90
23083;DHT22;11709;52.420;10.538;2022-10-16T00:32:43;15.00;99.90
23083;DHT22;11709;52.420;10.538;2022-10-16T00:36:46;14.90;99.90
23083;DHT22;11709;52.420;10.538;2022-10-16T00:40:48;14.80;99.90
23083;DHT22;11709;52.420;10.538;2022-10-16T00:44:57;14.80;99.90
23083;DHT22;11709;52.420;10.538;2022-10-16T00:48:58;14.80;99.90
23083;DHT22;11709;52.420;10.538;2022-10-16T00:53:02;14.70;99.90
23083;DHT22;11709;52.420;10.538;2022-10-16T00:57:06;14.70;99.90
23083;DHT22;11709;52.420;10.538;2022-10-16T01:01:09;14.70;99.90
23083;DHT22;11709;52.420;10.538;2022-10-16T01:05:11;14.60;99.90
23083;DHT22;11709;52.420;10.538;2022-10-16T01:09:33;14.70;99.90
23083;DHT22;11709;52.420;10.538;2022-10-16T01:13:34;14.60;99.90
23083;DHT22;11709;52.420;10.538;2022-10-16T01:21:56;14.60;99.90
23083;DHT22;11709;52.420;10.538;2022-10-16T01:30:21;14.50;99.90
23083;DHT22;11709;52.420;10.538;2022-10-16T01:34:35;14.50;99.90
23083;DHT22;11709;52.420;10.538;2022-10-16T01:38:37;14.50;99.90
23083;DHT22;11709;52.420;10.538;2022-10-16T01:42:42;14.50;99.90
23083;DHT22;11709;52.420;10.538;2022-10-16T01:46:48;14.50;99.90
23083;DHT22;11709;52.420;10.538;2022-10-16T01:51:14;14.50;99.90
23083;DHT22;11709;52.420;10.538;2022-10-16T01:54:58;14.40;99.90
23083;DHT22;11709;52.420;10.538;2022-10-16T01:59:10;14.40;99.90
23083;DHT22;11709;52.420;10.538;2022-10-16T02:03:15;14.40;99.90
23083;DHT22;11709;52.420;10.538;2022-10-16T02:07:18;14.40;99.90
23083;DHT22;11709;52.420;10.538;2022-10-16T02:11:21;14.40;99.90
23083;DHT22;11709;52.420;10.538;2022-10-16T02:15:23;14.40;99.90
23083;DHT22;11709;52.420;10.538;2022-10-16T02:19:26;14.40;99.90
23083;DHT22;11709;52.420;10.538;2022-10-16T02:28:00;14.40;99.90
23083;DHT22;11709;52.420;10.538;2022-10-16T02:32:03;14.50;99.90
23083;DHT22;11709;52.420;10.538;2022-10-16T02:36:07;14.50;99.90
23083;DHT22;11709;52.420;10.538;2022-10-16T02:40:10;14.50;99.90
23083;DHT22;11709;52.420;10.538;2022-10-16T02:44:13;14.50;99.90
23083;DHT22;11709;52.420;10.538;2022-10-16T02:48:16;14.60;99.90
23083;DHT22;11709;52.420;10.538;2022-10-16T02:52:18;14.60;99.90
23083;DHT22;11709;52.420;10.538;2022-10-16T02:56:21;14.60;99.90
23083;DHT22;11709;52.420;10.538;2022-10-16T03:00:23;14.60;99.90
23083;DHT22;11709;52.420;10.538;2022-10-16T03:04:26;14.60;99.90
23083;DHT22;11709;52.420;10.538;2022-10-16T03:08:28;14.60;99.90
23083;DHT22;11709;52.420;10.538;2022-10-16T03:12:31;14.50;99.90
23083;DHT22;11709;52.420;10.538;2022-10-16T03:16:33;14.50;99.90
23083;DHT22;11709;52.420;10.538;2022-10-16T03:20:36;14.40;99.90
23083;DHT22;11709;52.420;10.538;2022-10-16T03:24:38;14.40;99.90
23083;DHT22;11709;52.420;10.538;2022-10-16T03:28:41;14.40;99.90
23083;DHT22;11709;52.420;10.538;2022-10-16T03:32:46;14.30;99.90
23083;DHT22;11709;52.420;10.538;2022-10-16T03:36:49;14.20;99.90
23083;DHT22;11709;52.420;10.538;2022-10-16T03:40:51;14.20;99.90
23083;DHT22;11709;52.420;10.538;2022-10-16T03:44:54;14.20;99.90
23083;DHT22;11709;52.420;10.538;2022-10-16T03:48:56;14.10;99.90
23083;DHT22;11709;52.420;10.538;2022-10-16T03:52:59;14.10;99.90
23083;DHT22;11709;52.420;10.538;2022-10-16T03:57:01;14.10;99.90
23083;DHT22;11709;52.420;10.538;2022-10-16T04:01:04;14.00;99.90
23083;DHT22;11709;52.420;10.538;2022-10-16T04:05:07;14.00;99.90
23083;DHT22;11709;52.420;10.538;2022-10-16T04:09:09;14.00;99.90
23083;DHT22;11709;52.420;10.538;2022-10-16T04:13:12;14.00;99.90
23083;DHT22;11709;52.420;10.538;2022-10-16T04:17:15;13.90;99.90
23083;DHT22;11709;52.420;10.538;2022-10-16T04:21:18;13.90;99.90
23083;DHT22;11709;52.420;10.538;2022-10-16T04:25:20;13.80;99.90
23083;DHT22;11709;52.420;10.538;2022-10-16T04:29:23;13.80;99.90
23083;DHT22;11709;52.420;10.538;2022-10-16T04:33:25;13.80;99.90
23083;DHT22;11709;52.420;10.538;2022-10-16T04:37:28;13.70;99.90
23083;DHT22;11709;52.420;10.538;2022-10-16T04:41:30;13.60;99.90
23083;DHT22;11709;52.420;10.538;2022-10-16T04:45:33;13.60;99.90
23083;DHT22;11709;52.420;10.538;2022-10-16T04:49:35;13.60;99.90
23083;DHT22;11709;52.420;10.538;2022-10-16T04:53:38;13.60;99.90
23083;DHT22;11709;52.420;10.538;2022-10-16T04:57:40;13.50;99.90
23083;DHT22;11709;52.420;10.538;2022-10-16T05:01:43;13.40;99.90
23083;DHT22;11709;52.420;10.538;2022-10-16T05:05:46;13.50;99.90
23083;DHT22;11709;52.420;10.538;2022-10-16T05:09:49;13.40;99.90
23083;DHT22;11709;52.420;10.538;2022-10-16T05:13:51;13.40;99.90
23083;DHT22;11709;52.420;10.538;2022-10-16T05:17:54;13.30;99.90
23083;DHT22;11709;52.420;10.538;2022-10-16T05:21:57;13.30;99.90
23083;DHT22;11709;52.420;10.538;2022-10-16T05:26:00;13.20;99.90
23083;DHT22;11709;52.420;10.538;2022-10-16T05:30:03;13.20;99.90
23083;DHT22;11709;52.420;10.538;2022-10-16T05:34:05;13.20;99.90
23083;DHT22;11709;52.420;10.538;2022-10-16T05:38:08;13.20;99.90
23083;DHT22;11709;52.420;10.538;2022-10-16T05:42:10;13.20;99.90
23083;DHT22;11709;52.420;10.538;2022-10-16T05:46:13;13.20;99.90
23083;DHT22;11709;52.420;10.538;2022-10-16T05:50:16;13.20;99.90
23083;DHT22;11709;52.420;10.538;2022-10-16T05:54:18;13.20;99.90
23083;DHT22;11709;52.420;10.538;2022-10-16T05:58:21;13.20;99.90
23083;DHT22;11709;52.420;10.538;2022-10-16T06:02:24;13.20;99.90
23083;DHT22;11709;52.420;10.538;2022-10-16T06:06:27;13.20;99.90
23083;DHT22;11709;52.420;10.538;2022-10-16T06:10:31;13.20;99.90
23083;DHT22;11709;52.420;10.538;2022-10-16T06:14:33;13.20;99.90
23083;DHT22;11709;52.420;10.538;2022-10-16T06:18:36;13.20;99.90
23083;DHT22;11709;52.420;10.538;2022-10-16T06:22:38;13.20;99.90
23083;DHT22;11709;52.420;10.538;2022-10-16T06:26:41;13.20;99.90
23083;DHT22;11709;52.420;10.538;2022-10-16T06:30:43;13.30;99.90
23083;DHT22;11709;52.420;10.538;2022-10-16T06:34:47;13.40;99.90
23083;DHT22;11709;52.420;10.538;2022-10-16T06:38:49;13.40;99.90
23083;DHT22;11709;52.420;10.538;2022-10-16T06:42:56;13.50;99.90
23083;DHT22;11709;52.420;10.538;2022-10-16T06:46:58;13.50;99.90
23083;DHT22;11709;52.420;10.538;2022-10-16T06:51:03;13.60;99.90
23083;DHT22;11709;52.420;10.538;2022-10-16T06:55:06;13.70;99.90
23083;DHT22;11709;52.420;10.538;2022-10-16T06:59:09;13.80;99.90
23083;DHT22;11709;52.420;10.538;2022-10-16T07:03:11;14.00;99.90
23083;DHT22;11709;52.420;10.538;2022-10-16T07:07:14;14.00;99.90
23083;DHT22;11709;52.420;10.538;2022-10-16T07:11:22;14.20;99.90
23083;DHT22;11709;52.420;10.538;2022-10-16T07:15:21;14.20;99.90
23083;DHT22;11709;52.420;10.538;2022-10-16T07:19:24;14.30;99.90
23083;DHT22;11709;52.420;10.538;2022-10-16T07:23:27;14.60;99.90
23083;DHT22;11709;52.420;10.538;2022-10-16T07:27:29;14.80;99.90
23083;DHT22;11709;52.420;10.538;2022-10-16T07:31:32;15.00;99.90
23083;DHT22;11709;52.420;10.538;2022-10-16T07:35:34;15.20;99.90
23083;DHT22;11709;52.420;10.538;2022-10-16T07:39:37;15.50;99.90
23083;DHT22;11709;52.420;10.538;2022-10-16T07:43:39;15.80;99.90
23083;DHT22;11709;52.420;10.538;2022-10-16T07:47:42;16.00;99.90
23083;DHT22;11709;52.420;10.538;2022-10-16T07:51:45;16.20;99.90
23083;DHT22;11709;52.420;10.538;2022-10-16T07:55:47;16.30;99.90
23083;DHT22;11709;52.420;10.538;2022-10-16T07:59:50;16.40;99.90
23083;DHT22;11709;52.420;10.538;2022-10-16T08:03:52;16.50;99.90
23083;DHT22;11709;52.420;10.538;2022-10-16T08:07:55;16.60;99.90
23083;DHT22;11709;52.420;10.538;2022-10-16T08:11:57;16.70;99.90
23083;DHT22;11709;52.420;10.538;2022-10-16T08:16:00;17.10;99.90
23083;DHT22;11709;52.420;10.538;2022-10-16T08:20:03;17.30;99.90
23083;DHT22;11709;52.420;10.538;2022-10-16T08:24:06;17.20;99.90
23083;DHT22;11709;52.420;10.538;2022-10-16T08:28:10;17.10;99.90
23083;DHT22;11709;52.420;10.538;2022-10-16T08:32:13;17.20;99.90
23083;DHT22;11709;52.420;10.538;2022-10-16T08:36:16;17.40;99.90
23083;DHT22;11709;52.420;10.538;2022-10-16T08:40:27;17.50;99.90
23083;DHT22;11709;52.420;10.538;2022-10-16T08:49:09;17.70;99.90
23083;DHT22;11709;52.420;10.538;2022-10-16T08:53:18;17.60;99.90
23083;DHT22;11709;52.420;10.538;2022-10-16T08:57:22;17.50;99.90
23083;DHT22;11709;52.420;10.538;2022-10-16T09:01:49;17.70;99.90
23083;DHT22;11709;52.420;10.538;2022-10-16T09:10:44;18.20;99.90
23083;DHT22;11709;52.420;10.538;2022-10-16T09:19:16;18.20;99.90
23083;DHT22;11709;52.420;10.538;2022-10-16T09:23:27;18.10;99.90
23083;DHT22;11709;52.420;10.538;2022-10-16T09:27:30;18.10;99.90
23083;DHT22;11709;52.420;10.538;2022-10-16T09:31:35;17.80;99.90
23083;DHT22;11709;52.420;10.538;2022-10-16T09:35:41;17.70;99.90
23083;DHT22;11709;52.420;10.538;2022-10-16T09:39:46;17.70;99.90
23083;DHT22;11709;52.420;10.538;2022-10-16T09:43:59;17.80;99.90
23083;DHT22;11709;52.420;10.538;2022-10-16T09:48:17;18.00;99.90
23083;DHT22;11709;52.420;10.538;2022-10-16T09:52:25;18.10;99.90
23083;DHT22;11709;52.420;10.538;2022-10-16T09:56:34;18.30;99.90
23083;DHT22;11709;52.420;10.538;2022-10-16T10:00:41;18.60;99.90
23083;DHT22;11709;52.420;10.538;2022-10-16T10:04:51;18.60;99.90
23083;DHT22;11709;52.420;10.538;2022-10-16T10:09:02;18.80;99.90
23083;DHT22;11709;52.420;10.538;2022-10-16T10:13:20;19.00;99.90
23083;DHT22;11709;52.420;10.538;2022-10-16T10:17:26;19.20;99.90
23083;DHT22;11709;52.420;10.538;2022-10-16T10:21:32;20.20;99.90
23083;DHT22;11709;52.420;10.538;2022-10-16T10:34:50;20.30;99.90
23083;DHT22;11709;52.420;10.538;2022-10-16T10:39:06;20.30;99.90
23083;DHT22;11709;52.420;10.538;2022-10-16T10:43:15;20.60;99.90
23083;DHT22;11709;52.420;10.538;2022-10-16T10:47:48;20.70;99.90
23083;DHT22;11709;52.420;10.538;2022-10-16T10:56:47;20.40;99.90
23083;DHT22;11709;52.420;10.538;2022-10-16T11:01:14;20.70;99.90
23083;DHT22;11709;52.420;10.538;2022-10-16T11:05:35;21.00;99.90
23083;DHT22;11709;52.420;10.538;2022-10-16T11:09:50;20.20;99.90
23083;DHT22;11709;52.420;10.538;2022-10-16T11:13:54;19.60;99.90
23083;DHT22;11709;52.420;10.538;2022-10-16T11:18:16;19.30;99.90
23083;DHT22;11709;52.420;10.538;2022-10-16T11:26:31;19.50;99.90
23083;DHT22;11709;52.420;10.538;2022-10-16T11:30:42;19.70;99.90
23083;DHT22;11709;52.420;10.538;2022-10-16T11:34:53;20.30;99.90
23083;DHT22;11709;52.420;10.538;2022-10-16T11:39:19;20.70;99.90
23083;DHT22;11709;52.420;10.538;2022-10-16T11:43:32;21.20;99.90
23083;DHT22;11709;52.420;10.538;2022-10-16T11:47:45;21.80;99.90
23083;DHT22;11709;52.420;10.538;2022-10-16T11:56:31;23.00;99.90
23083;DHT22;11709;52.420;10.538;2022-10-16T12:04:56;23.60;99.90
23083;DHT22;11709;52.420;10.538;2022-10-16T12:08:54;23.90;99.90
23083;DHT22;11709;52.420;10.538;2022-10-16T12:13:00;23.70;99.90
23083;DHT22;11709;52.420;10.538;2022-10-16T12:21:29;23.80;99.90
23083;DHT22;11709;52.420;10.538;2022-10-16T12:25:33;24.20;99.90
23083;DHT22;11709;52.420;10.538;2022-10-16T12:29:40;24.40;99.90
23083;DHT22;11709;52.420;10.538;2022-10-16T12:38:20;24.70;99.90
23083;DHT22;11709;52.420;10.538;2022-10-16T12:46:39;25.20;99.90
23083;DHT22;11709;52.420;10.538;2022-10-16T12:50:42;25.60;99.90
23083;DHT22;11709;52.420;10.538;2022-10-16T12:54:45;24.80;99.90
23083;DHT22;11709;52.420;10.538;2022-10-16T12:59:05;25.10;99.90
23083;DHT22;11709;52.420;10.538;2022-10-16T13:03:23;25.10;99.90
23083;DHT22;11709;52.420;10.538;2022-10-16T13:07:43;25.90;97.00
23083;DHT22;11709;52.420;10.538;2022-10-16T13:12:07;25.80;94.90
23083;DHT22;11709;52.420;10.538;2022-10-16T13:20:51;27.10;92.10
23083;DHT22;11709;52.420;10.538;2022-10-16T13:29:00;27.20;90.00
23083;DHT22;11709;52.420;10.538;2022-10-16T13:37:21;27.40;85.10
23083;DHT22;11709;52.420;10.538;2022-10-16T13:41:24;27.60;86.50
23083;DHT22;11709;52.420;10.538;2022-10-16T13:45:28;27.50;86.70
23083;DHT22;11709;52.420;10.538;2022-10-16T13:49:31;28.20;84.00
23083;DHT22;11709;52.420;10.538;2022-10-16T13:53:37;27.80;81.50
23083;DHT22;11709;52.420;10.538;2022-10-16T13:57:39;28.10;81.20
23083;DHT22;11709;52.420;10.538;2022-10-16T14:01:43;27.90;79.20
23083;DHT22;11709;52.420;10.538;2022-10-16T14:05:49;27.60;79.60
23083;DHT22;11709;52.420;10.538;2022-10-16T14:09:53;27.00;81.40
23083;DHT22;11709;52.420;10.538;2022-10-16T14:13:56;26.40;82.70
23083;DHT22;11709;52.420;10.538;2022-10-16T14:18:01;26.30;83.30
23083;DHT22;11709;52.420;10.538;2022-10-16T14:22:20;26.40;84.30
23083;DHT22;11709;52.420;10.538;2022-10-16T14:26:12;25.70;85.10
23083;DHT22;11709;52.420;10.538;2022-10-16T14:30:21;25.00;87.40
23083;DHT22;11709;52.420;10.538;2022-10-16T14:34:34;24.80;88.30
23083;DHT22;11709;52.420;10.538;2022-10-16T14:38:38;24.40;89.50
23083;DHT22;11709;52.420;10.538;2022-10-16T14:42:43;23.80;91.10
23083;DHT22;11709;52.420;10.538;2022-10-16T14:46:49;23.40;92.60
23083;DHT22;11709;52.420;10.538;2022-10-16T14:50:51;22.90;93.30
23083;DHT22;11709;52.420;10.538;2022-10-16T14:54:54;22.80;93.90
23083;DHT22;11709;52.420;10.538;2022-10-16T14:58:57;22.80;94.20
23083;DHT22;11709;52.420;10.538;2022-10-16T15:03:00;23.20;94.20
23083;DHT22;11709;52.420;10.538;2022-10-16T15:07:03;23.40;94.60
23083;DHT22;11709;52.420;10.538;2022-10-16T15:11:11;23.70;93.80
23083;DHT22;11709;52.420;10.538;2022-10-16T15:15:20;23.90;92.70
23083;DHT22;11709;52.420;10.538;2022-10-16T15:19:19;24.00;93.00
23083;DHT22;11709;52.420;10.538;2022-10-16T15:23:22;24.00;93.20
23083;DHT22;11709;52.420;10.538;2022-10-16T15:27:26;23.90;92.80
23083;DHT22;11709;52.420;10.538;2022-10-16T15:31:28;23.80;93.20
23083;DHT22;11709;52.420;10.538;2022-10-16T15:35:31;24.00;93.60
23083;DHT22;11709;52.420;10.538;2022-10-16T15:39:33;23.90;93.30
23083;DHT22;11709;52.420;10.538;2022-10-16T15:43:37;23.80;93.10
23083;DHT22;11709;52.420;10.538;2022-10-16T15:47:42;23.60;93.60
23083;DHT22;11709;52.420;10.538;2022-10-16T15:51:45;23.40;93.50
23083;DHT22;11709;52.420;10.538;2022-10-16T15:55:47;23.00;94.20
23083;DHT22;11709;52.420;10.538;2022-10-16T15:59:50;22.60;95.10
23083;DHT22;11709;52.420;10.538;2022-10-16T16:03:54;22.20;96.20
23083;DHT22;11709;52.420;10.538;2022-10-16T16:07:57;21.80;98.40
23083;DHT22;11709;52.420;10.538;2022-10-16T16:11:59;21.40;99.90
23083;DHT22;11709;52.420;10.538;2022-10-16T16:16:07;20.90;99.90
23083;DHT22;11709;52.420;10.538;2022-10-16T16:20:10;20.60;99.90
23083;DHT22;11709;52.420;10.538;2022-10-16T16:24:13;20.40;99.90
23083;DHT22;11709;52.420;10.538;2022-10-16T16:28:15;20.00;99.90
23083;DHT22;11709;52.420;10.538;2022-10-16T16:32:18;19.60;99.90
23083;DHT22;11709;52.420;10.538;2022-10-16T16:36:20;19.20;99.90
23083;DHT22;11709;52.420;10.538;2022-10-16T16:40:23;18.70;99.90
23083;DHT22;11709;52.420;10.538;2022-10-16T16:44:25;18.40;99.90
23083;DHT22;11709;52.420;10.538;2022-10-16T16:48:28;18.10;99.90
23083;DHT22;11709;52.420;10.538;2022-10-16T16:52:30;17.90;99.90
23083;DHT22;11709;52.420;10.538;2022-10-16T16:56:33;17.60;99.90
23083;DHT22;11709;52.420;10.538;2022-10-16T17:00:36;17.20;99.90
23083;DHT22;11709;52.420;10.538;2022-10-16T17:04:39;17.10;99.90
23083;DHT22;11709;52.420;10.538;2022-10-16T17:08:42;16.80;99.90
23083;DHT22;11709;52.420;10.538;2022-10-16T17:12:44;16.70;99.90
23083;DHT22;11709;52.420;10.538;2022-10-16T17:16:47;16.60;99.90
23083;DHT22;11709;52.420;10.538;2022-10-16T17:20:50;16.60;99.90
23083;DHT22;11709;52.420;10.538;2022-10-16T17:24:53;16.50;99.90
23083;DHT22;11709;52.420;10.538;2022-10-16T17:28:57;16.40;99.90
23083;DHT22;11709;52.420;10.538;2022-10-16T17:33:01;16.30;99.90
23083;DHT22;11709;52.420;10.538;2022-10-16T17:37:03;16.10;99.90
23083;DHT22;11709;52.420;10.538;2022-10-16T17:41:21;16.10;99.90
23083;DHT22;11709;52.420;10.538;2022-10-16T17:45:24;15.90;99.90
23083;DHT22;11709;52.420;10.538;2022-10-16T17:49:27;15.90;99.90
23083;DHT22;11709;52.420;10.538;2022-10-16T17:53:29;15.90;99.90
23083;DHT22;11709;52.420;10.538;2022-10-16T17:57:32;15.80;99.90
23083;DHT22;11709;52.420;10.538;2022-10-16T18:01:36;15.80;99.90
23083;DHT22;11709;52.420;10.538;2022-10-16T18:05:40;15.80;99.90
23083;DHT22;11709;52.420;10.538;2022-10-16T18:09:43;15.70;99.90
23083;DHT22;11709;52.420;10.538;2022-10-16T18:13:46;15.70;99.90
23083;DHT22;11709;52.420;10.538;2022-10-16T18:17:48;15.60;99.90
23083;DHT22;11709;52.420;10.538;2022-10-16T18:21:51;15.50;99.90
23083;DHT22;11709;52.420;10.538;2022-10-16T18:25:55;15.40;99.90
23083;DHT22;11709;52.420;10.538;2022-10-16T18:29:59;15.30;99.90
23083;DHT22;11709;52.420;10.538;2022-10-16T18:34:01;15.30;99.90
23083;DHT22;11709;52.420;10.538;2022-10-16T18:38:04;15.30;99.90
23083;DHT22;11709;52.420;10.538;2022-10-16T18:42:06;15.20;99.90
23083;DHT22;11709;52.420;10.538;2022-10-16T18:46:17;15.20;99.90
23083;DHT22;11709;52.420;10.538;2022-10-16T18:50:21;15.20;99.90
23083;DHT22;11709;52.420;10.538;2022-10-16T18:54:24;15.10;99.90
23083;DHT22;11709;52.420;10.538;2022-10-16T18:58:27;15.10;99.90
23083;DHT22;11709;52.420;10.538;2022-10-16T19:02:29;15.10;99.90
23083;DHT22;11709;52.420;10.538;2022-10-16T19:06:37;14.90;99.90
23083;DHT22;11709;52.420;10.538;2022-10-16T19:10:40;14.80;99.90
23083;DHT22;11709;52.420;10.538;2022-10-16T19:14:43;14.70;99.90
23083;DHT22;11709;52.420;10.538;2022-10-16T19:18:46;14.60;99.90
23083;DHT22;11709;52.420;10.538;2022-10-16T19:22:48;14.50;99.90
23083;DHT22;11709;52.420;10.538;2022-10-16T19:26:58;14.40;99.90
23083;DHT22;11709;52.420;10.538;2022-10-16T19:31:02;14.50;99.90
23083;DHT22;11709;52.420;10.538;2022-10-16T19:35:05;14.40;99.90
23083;DHT22;11709;52.420;10.538;2022-10-16T19:39:12;14.40;99.90
23083;DHT22;11709;52.420;10.538;2022-10-16T19:43:14;14.40;99.90
23083;DHT22;11709;52.420;10.538;2022-10-16T19:47:17;14.40;99.90
23083;DHT22;11709;52.420;10.538;2022-10-16T19:51:20;14.40;99.90
23083;DHT22;11709;52.420;10.538;2022-10-16T19:55:22;14.50;99.90
23083;DHT22;11709;52.420;10.538;2022-10-16T19:59:25;14.40;99.90
23083;DHT22;11709;52.420;10.538;2022-10-16T20:03:27;14.40;99.90
23083;DHT22;11709;52.420;10.538;2022-10-16T20:07:30;14.30;99.90
23083;DHT22;11709;52.420;10.538;2022-10-16T20:11:34;14.30;99.90
23083;DHT22;11709;52.420;10.538;2022-10-16T20:15:37;14.20;99.90
23083;DHT22;11709;52.420;10.538;2022-10-16T20:19:39;14.20;99.90
23083;DHT22;11709;52.420;10.538;2022-10-16T20:23:42;14.20;99.90
23083;DHT22;11709;52.420;10.538;2022-10-16T20:27:45;14.10;99.90
23083;DHT22;11709;52.420;10.538;2022-10-16T20:31:47;14.10;99.90
23083;DHT22;11709;52.420;10.538;2022-10-16T20:35:50;14.00;99.90
23083;DHT22;11709;52.420;10.538;2022-10-16T20:39:53;14.00;99.90
23083;DHT22;11709;52.420;10.538;2022-10-16T20:43:55;14.00;99.90
23083;DHT22;11709;52.420;10.538;2022-10-16T20:47:58;14.10;99.90
23083;DHT22;11709;52.420;10.538;2022-10-16T20:52:01;14.00;99.90
23083;DHT22;11709;52.420;10.538;2022-10-16T20:56:03;14.00;99.90
23083;DHT22;11709;52.420;10.538;2022-10-16T21:00:07;13.90;99.90
23083;DHT22;11709;52.420;10.538;2022-10-16T21:04:09;13.90;99.90
23083;DHT22;11709;52.420;10.538;2022-10-16T21:08:12;13.80;99.90
23083;DHT22;11709;52.420;10.538;2022-10-16T21:12:14;13.80;99.90
23083;DHT22;11709;52.420;10.538;2022-10-16T21:16:17;13.80;99.90
23083;DHT22;11709;52.420;10.538;2022-10-16T21:20:20;13.80;99.90
23083;DHT22;11709;52.420;10.538;2022-10-16T21:24:22;13.90;99.90
23083;DHT22;11709;52.420;10.538;2022-10-16T21:28:25;13.90;99.90
23083;DHT22;11709;52.420;10.538;2022-10-16T21:32:27;14.00;99.90
23083;DHT22;11709;52.420;10.538;2022-10-16T21:36:32;14.10;99.90
23083;DHT22;11709;52.420;10.538;2022-10-16T21:40:35;14.20;99.90
23083;DHT22;11709;52.420;10.538;2022-10-16T21:44:37;14.20;99.90
23083;DHT22;11709;52.420;10.538;2022-10-16T21:48:40;14.20;99.90
23083;DHT22;11709;52.420;10.538;2022-10-16T21:52:45;14.20;99.90
23083;DHT22;11709;52.420;10.538;2022-10-16T21:56:48;14.10;99.90
23083;DHT22;11709;52.420;10.538;2022-10-16T22:00:50;14.20;99.90
23083;DHT22;11709;52.420;10.538;2022-10-16T22:04:53;14.30;99.90
23083;DHT22;11709;52.420;10.538;2022-10-16T22:08:58;14.40;99.90
23083;DHT22;11709;52.420;10.538;2022-10-16T22:13:00;14.40;99.90
23083;DHT22;11709;52.420;10.538;2022-10-16T22:17:03;14.50;99.90
23083;DHT22;11709;52.420;10.538;2022-10-16T22:21:07;14.60;99.90
23083;DHT22;11709;52.420;10.538;2022-10-16T22:25:10;14.60;99.90
23083;DHT22;11709;52.420;10.538;2022-10-16T22:29:13;14.60;99.90
23083;DHT22;11709;52.420;10.538;2022-10-16T22:33:15;14.50;99.90
23083;DHT22;11709;52.420;10.538;2022-10-16T22:37:18;14.50;99.90
23083;DHT22;11709;52.420;10.538;2022-10-16T22:41:21;14.60;99.90
23083;DHT22;11709;52.420;10.538;2022-10-16T22:45:25;14.60;99.90
23083;DHT22;11709;52.420;10.538;2022-10-16T22:49:27;14.50;99.90
23083;DHT22;11709;52.420;10.538;2022-10-16T22:53:30;14.40;99.90
23083;DHT22;11709;52.420;10.538;2022-10-16T22:57:33;14.40;99.90
23083;DHT22;11709;52.420;10.538;2022-10-16T23:01:38;14.40;99.90
23083;DHT22;11709;52.420;10.538;2022-10-16T23:05:42;14.50;99.90
23083;DHT22;11709;52.420;10.538;2022-10-16T23:09:44;14.50;99.90
23083;DHT22;11709;52.420;10.538;2022-10-16T23:13:47;14.50;99.90
23083;DHT22;11709;52.420;10.538;2022-10-16T23:17:50;14.50;99.90
23083;DHT22;11709;52.420;10.538;2022-10-16T23:21:53;14.40;99.90
23083;DHT22;11709;52.420;10.538;2022-10-16T23:25:55;14.40;99.90
23083;DHT22;11709;52.420;10.538;2022-10-16T23:29:58;14.40;99.90
23083;DHT22;11709;52.420;10.538;2022-10-16T23:34:00;14.30;99.90
23083;DHT22;11709;52.420;10.538;2022-10-16T23:38:03;14.20;99.90
23083;DHT22;11709;52.420;10.538;2022-10-16T23:42:05;14.20;99.90
23083;DHT22;11709;52.420;10.538;2022-10-16T23:46:09;14.20;99.90
23083;DHT22;11709;52.420;10.538;2022-10-16T23:50:12;14.20;99.90
23083;DHT22;11709;52.420;10.538;2022-10-16T23:54:14;14.20;99.90
23083;DHT22;11709;52.420;10.538;2022-10-16T23:58:17;14.20;99.90
